Time;durP1;ratioP1;P1;durP2;ratioP2;P2;SDS_P1;SDS_P2;PMS_P1;PMS_P2;Temp;Humidity;BMP_temperature;BMP_pressure;BME280_temperature;BME280_humidity;BME280_pressure;Samples;Min_cycle;Max_cycle;Signal;HPM_P1;HPM_P2
2023/09/19 00:01:41;;;;;;;7.95;1.20;;;;;;;;;;5083943;28;20040;-64
2023/09/19 00:04:09;;;;;;;5.13;1.05;;;;;;;;;;5082797;28;20113;-64
2023/09/19 00:06:36;;;;;;;6.20;1.00;;;;;;;;;;5079127;28;20058;-63
2023/09/19 00:09:04;;;;;;;9.23;1.30;;;;;;;;;;5079790;28;20044;-64
2023/09/19 00:11:31;;;;;;;6.05;1.10;;;;;;;;;;5098487;28;20505;-63
2023/09/19 00:14:00;;;;;;;9.60;1.00;;;;;;;;;;5088625;28;20109;-65
2023/09/19 00:16:29;;;;;;;8.45;1.20;;;;;;;;;;5085385;28;20052;-63
2023/09/19 00:18:57;;;;;;;10.13;1.25;;;;;;;;;;5084074;28;20048;-64
2023/09/19 00:21:25;;;;;;;7.90;1.40;;;;;;;;;;5098251;28;20052;-63
2023/09/19 00:23:52;;;;;;;10.02;1.40;;;;;;;;;;5093044;28;20048;-65
2023/09/19 00:26:20;;;;;;;10.40;1.38;;;;;;;;;;5085820;28;20071;-63
2023/09/19 00:28:48;;;;;;;5.57;1.05;;;;;;;;;;5091441;28;20380;-64
2023/09/19 00:31:15;;;;;;;6.25;1.08;;;;;;;;;;5083423;28;20047;-64
2023/09/19 00:33:43;;;;;;;8.32;1.38;;;;;;;;;;5091493;28;20052;-64
2023/09/19 00:36:11;;;;;;;12.48;1.40;;;;;;;;;;5083478;28;20468;-63
2023/09/19 00:38:38;;;;;;;10.40;1.58;;;;;;;;;;5091008;28;20055;-64
2023/09/19 00:41:06;;;;;;;8.68;1.52;;;;;;;;;;5087738;28;20048;-63
2023/09/19 00:43:35;;;;;;;7.28;1.33;;;;;;;;;;5083547;28;20101;-64
2023/09/19 00:46:04;;;;;;;5.78;1.08;;;;;;;;;;5090414;28;20055;-64
2023/09/19 00:48:32;;;;;;;5.70;1.00;;;;;;;;;;5090032;28;20442;-63
2023/09/19 00:51:04;;;;;;;8.32;1.30;;;;;;;;;;5082323;28;20114;-64
2023/09/19 00:53:33;;;;;;;6.80;1.05;;;;;;;;;;5090197;28;20052;-63
2023/09/19 00:56:01;;;;;;;6.25;0.90;;;;;;;;;;5088969;28;20048;-63
2023/09/19 00:58:33;;;;;;;3.85;1.02;;;;;;;;;;5087823;28;20060;-64
2023/09/19 01:01:00;;;;;;;3.70;0.82;;;;;;;;;;5085800;28;20544;-64
2023/09/19 01:03:27;;;;;;;6.55;1.30;;;;;;;;;;5088784;28;20490;-64
2023/09/19 01:05:55;;;;;;;5.97;0.95;;;;;;;;;;5073892;28;20059;-64
2023/09/19 01:08:24;;;;;;;7.32;1.25;;;;;;;;;;5089099;28;20052;-64
2023/09/19 01:10:54;;;;;;;9.13;1.40;;;;;;;;;;5064221;28;20820;-63
2023/09/19 01:13:24;;;;;;;7.65;1.20;;;;;;;;;;5083704;28;20411;-63
2023/09/19 01:15:56;;;;;;;5.25;1.00;;;;;;;;;;5087668;28;20051;-63
2023/09/19 01:18:30;;;;;;;10.57;1.08;;;;;;;;;;5069946;28;20139;-63
2023/09/19 01:20:57;;;;;;;;;;;;;;;;;;5092813;28;20131;-64
2023/09/19 01:23:31;;;;;;;3.53;0.75;;;;;;;;;;5090715;28;20341;-63
2023/09/19 01:26:08;;;;;;;6.50;1.02;;;;;;;;;;5088100;28;20256;-64
2023/09/19 01:28:41;;;;;;;9.13;1.30;;;;;;;;;;5082840;28;20101;-64
2023/09/19 01:31:10;;;;;;;;;;;;;;;;;;5091208;28;20055;-64
2023/09/19 01:34:00;;;;;;;8.00;0.95;;;;;;;;;;5087851;28;19930;-64
2023/09/19 01:36:28;;;;;;;8.25;1.33;;;;;;;;;;5089391;28;20048;-64
2023/09/19 01:38:57;;;;;;;4.07;1.17;;;;;;;;;;5085447;28;20507;-64
2023/09/19 01:41:28;;;;;;;9.60;1.40;;;;;;;;;;5090370;28;20048;-63
2023/09/19 01:43:56;;;;;;;6.85;1.33;;;;;;;;;;5089242;28;20056;-64
2023/09/19 01:46:26;;;;;;;5.80;0.60;;;;;;;;;;5086349;28;20914;-63
2023/09/19 01:49:02;;;;;;;5.88;1.20;;;;;;;;;;5072939;28;20483;-63
2023/09/19 01:51:34;;;;;;;5.22;0.98;;;;;;;;;;5084522;28;20130;-64
2023/09/19 01:54:04;;;;;;;6.60;1.30;;;;;;;;;;5085123;28;20483;-63
2023/09/19 01:56:35;;;;;;;7.43;1.02;;;;;;;;;;5083610;28;20049;-63
2023/09/19 01:59:05;;;;;;;4.25;0.77;;;;;;;;;;5090608;28;20048;-66
2023/09/19 02:01:32;;;;;;;3.97;1.00;;;;;;;;;;5088655;28;20071;-64
2023/09/19 02:04:01;;;;;;;6.53;0.88;;;;;;;;;;5089322;28;20499;-63
2023/09/19 02:06:28;;;;;;;3.95;0.82;;;;;;;;;;5070040;28;20044;-64
2023/09/19 02:08:56;;;;;;;7.75;1.00;;;;;;;;;;5088380;28;20059;-63
2023/09/19 02:11:23;;;;;;;2.50;0.70;;;;;;;;;;5082154;28;20468;-63
2023/09/19 02:13:54;;;;;;;5.18;0.90;;;;;;;;;;5078014;28;20056;-62
2023/09/19 02:16:21;;;;;;;5.75;0.82;;;;;;;;;;5085518;28;20139;-63
2023/09/19 02:18:50;;;;;;;4.43;0.90;;;;;;;;;;5081951;28;20542;-63
2023/09/19 02:21:18;;;;;;;2.30;0.63;;;;;;;;;;5087052;28;20045;-63
2023/09/19 02:23:47;;;;;;;3.63;1.10;;;;;;;;;;5085670;28;20044;-63
2023/09/19 02:26:14;;;;;;;3.58;0.85;;;;;;;;;;5074277;28;20059;-64
2023/09/19 02:28:41;;;;;;;9.00;1.02;;;;;;;;;;5088184;28;20545;-63
2023/09/19 02:31:09;;;;;;;5.00;0.95;;;;;;;;;;5087819;28;20050;-64
2023/09/19 02:33:37;;;;;;;8.80;1.05;;;;;;;;;;5088499;28;20046;-64
2023/09/19 02:36:05;;;;;;;4.28;1.02;;;;;;;;;;5086946;28;20097;-63
2023/09/19 02:38:34;;;;;;;6.70;1.10;;;;;;;;;;5089549;28;20056;-64
2023/09/19 02:41:01;;;;;;;10.85;1.30;;;;;;;;;;5088131;28;20052;-64
2023/09/19 02:43:29;;;;;;;4.55;0.90;;;;;;;;;;5089058;28;20052;-63
2023/09/19 02:45:57;;;;;;;7.30;1.02;;;;;;;;;;5088800;28;20058;-64
2023/09/19 02:48:25;;;;;;;5.28;1.13;;;;;;;;;;5084999;28;20044;-62
2023/09/19 02:50:52;;;;;;;5.28;0.90;;;;;;;;;;5084905;28;20762;-66
2023/09/19 02:53:19;;;;;;;6.95;1.50;;;;;;;;;;5085445;28;20091;-64
2023/09/19 02:55:49;;;;;;;7.65;0.82;;;;;;;;;;5086464;28;20060;-64
2023/09/19 02:58:18;;;;;;;5.20;1.00;;;;;;;;;;5085595;28;20040;-63
2023/09/19 03:00:47;;;;;;;6.70;1.30;;;;;;;;;;5082764;28;20054;-64
2023/09/19 03:03:15;;;;;;;4.22;0.77;;;;;;;;;;5088389;28;20497;-64
2023/09/19 03:05:46;;;;;;;8.95;1.05;;;;;;;;;;5089349;28;20131;-64
2023/09/19 03:08:16;;;;;;;6.25;0.90;;;;;;;;;;5085918;28;20052;-63
2023/09/19 03:10:44;;;;;;;5.15;1.20;;;;;;;;;;5083357;28;20056;-63
2023/09/19 03:13:12;;;;;;;5.57;1.17;;;;;;;;;;5089448;28;20078;-64
2023/09/19 03:15:44;;;;;;;7.20;0.90;;;;;;;;;;5086501;28;20066;-63
2023/09/19 03:18:11;;;;;;;2.53;0.65;;;;;;;;;;5088667;28;20143;-63
2023/09/19 03:20:39;;;;;;;5.70;1.27;;;;;;;;;;5088492;28;20158;-63
2023/09/19 03:23:07;;;;;;;5.07;1.10;;;;;;;;;;5089055;28;20048;-63
2023/09/19 03:25:35;;;;;;;6.13;0.98;;;;;;;;;;5071182;28;20052;-63
2023/09/19 03:28:05;;;;;;;5.40;1.00;;;;;;;;;;5082551;28;20040;-63
2023/09/19 03:30:34;;;;;;;9.07;1.15;;;;;;;;;;5084553;28;20067;-63
2023/09/19 03:33:01;;;;;;;4.90;1.10;;;;;;;;;;5084008;28;20414;-63
2023/09/19 03:35:29;;;;;;;6.03;0.90;;;;;;;;;;5087014;28;20044;-63
2023/09/19 03:37:56;;;;;;;8.63;0.98;;;;;;;;;;5087565;28;20054;-62
2023/09/19 03:40:25;;;;;;;3.40;0.85;;;;;;;;;;5088257;28;20050;-63
2023/09/19 03:42:52;;;;;;;7.55;0.93;;;;;;;;;;5084458;28;20048;-64
2023/09/19 03:45:19;;;;;;;17.50;1.65;;;;;;;;;;5086598;28;20076;-63
2023/09/19 03:47:48;;;;;;;6.20;0.88;;;;;;;;;;5083678;28;20093;-63
2023/09/19 03:50:17;;;;;;;9.25;1.10;;;;;;;;;;5083993;28;20047;-63
2023/09/19 03:52:44;;;;;;;8.25;1.00;;;;;;;;;;5085420;28;20048;-64
2023/09/19 03:55:11;;;;;;;8.52;1.52;;;;;;;;;;5086682;28;20067;-64
2023/09/19 03:57:39;;;;;;;4.45;0.90;;;;;;;;;;5086262;28;20058;-64
2023/09/19 04:00:11;;;;;;;4.05;1.08;;;;;;;;;;5065562;28;20048;-64
2023/09/19 04:02:38;;;;;;;7.68;1.10;;;;;;;;;;5081670;28;20047;-63
2023/09/19 04:05:07;;;;;;;7.32;0.88;;;;;;;;;;5084964;28;20048;-64
2023/09/19 04:07:34;;;;;;;3.58;0.77;;;;;;;;;;5080468;28;20048;-63
2023/09/19 04:10:02;;;;;;;6.15;1.00;;;;;;;;;;5088098;28;20052;-62
2023/09/19 04:12:30;;;;;;;3.80;1.05;;;;;;;;;;5083817;28;20127;-63
2023/09/19 04:14:57;;;;;;;5.95;0.77;;;;;;;;;;5084191;28;20047;-63
2023/09/19 04:17:24;;;;;;;5.20;1.20;;;;;;;;;;5087287;28;20059;-62
2023/09/19 04:19:51;;;;;;;8.52;1.33;;;;;;;;;;5089784;28;20098;-63
2023/09/19 04:22:20;;;;;;;8.05;1.30;;;;;;;;;;5082952;28;20044;-63
2023/09/19 04:24:47;;;;;;;7.75;0.95;;;;;;;;;;5084349;28;20052;-64
2023/09/19 04:27:15;;;;;;;5.47;1.25;;;;;;;;;;5080685;28;20059;-62
2023/09/19 04:29:42;;;;;;;5.32;0.80;;;;;;;;;;5069689;28;20496;-63
2023/09/19 04:32:10;;;;;;;6.43;1.15;;;;;;;;;;5083288;28;20047;-63
2023/09/19 04:34:38;;;;;;;12.35;0.90;;;;;;;;;;5087388;28;20044;-62
2023/09/19 04:37:05;;;;;;;5.45;0.90;;;;;;;;;;5086538;28;20140;-63
2023/09/19 04:39:34;;;;;;;8.23;0.98;;;;;;;;;;5064413;28;20052;-63
2023/09/19 04:42:01;;;;;;;5.82;1.20;;;;;;;;;;5066975;28;20048;-63
2023/09/19 04:44:28;;;;;;;5.68;1.13;;;;;;;;;;5071194;28;20446;-63
2023/09/19 04:46:59;;;;;;;7.38;1.00;;;;;;;;;;5086913;28;20043;-63
2023/09/19 04:49:26;;;;;;;4.68;0.80;;;;;;;;;;5087270;28;20086;-63
2023/09/19 04:51:55;;;;;;;6.60;1.30;;;;;;;;;;5088280;28;20056;-62
2023/09/19 04:54:22;;;;;;;9.25;1.05;;;;;;;;;;5068360;28;20052;-62
2023/09/19 04:56:51;;;;;;;3.65;1.13;;;;;;;;;;5083753;28;20055;-63
2023/09/19 04:59:18;;;;;;;9.43;1.25;;;;;;;;;;5084609;28;20056;-65
2023/09/19 05:01:46;;;;;;;9.43;1.08;;;;;;;;;;5082783;28;20044;-62
2023/09/19 05:04:14;;;;;;;6.30;0.85;;;;;;;;;;5087020;28;20047;-63
2023/09/19 05:06:41;;;;;;;10.60;1.45;;;;;;;;;;5084128;28;20048;-62
2023/09/19 05:09:08;;;;;;;6.88;1.33;;;;;;;;;;5088553;28;20040;-63
2023/09/19 05:11:38;;;;;;;7.18;1.13;;;;;;;;;;5090113;28;20044;-63
2023/09/19 05:14:06;;;;;;;4.30;0.95;;;;;;;;;;5091184;28;20127;-63
2023/09/19 05:16:34;;;;;;;7.35;1.17;;;;;;;;;;5087971;28;20075;-64
2023/09/19 05:19:01;;;;;;;4.28;1.17;;;;;;;;;;5089985;28;20460;-63
2023/09/19 05:21:30;;;;;;;8.90;1.25;;;;;;;;;;5095335;28;20509;-62
2023/09/19 05:23:57;;;;;;;7.45;1.02;;;;;;;;;;5089939;28;20048;-64
2023/09/19 05:26:24;;;;;;;4.80;1.00;;;;;;;;;;5083336;28;20048;-63
2023/09/19 05:28:52;;;;;;;8.05;2.00;;;;;;;;;;5071896;28;20043;-63
2023/09/19 05:31:21;;;;;;;4.80;0.93;;;;;;;;;;5087528;28;20101;-62
2023/09/19 05:33:48;;;;;;;9.30;1.40;;;;;;;;;;5092519;28;20044;-62
2023/09/19 05:36:16;;;;;;;11.40;1.40;;;;;;;;;;5089782;28;20132;-62
2023/09/19 05:38:44;;;;;;;8.35;0.93;;;;;;;;;;5086596;28;20134;-62
2023/09/19 05:41:13;;;;;;;9.07;1.23;;;;;;;;;;5088857;28;20087;-63
2023/09/19 05:43:40;;;;;;;6.78;1.13;;;;;;;;;;5082646;28;20059;-62
2023/09/19 05:46:08;;;;;;;10.18;1.73;;;;;;;;;;5090061;28;20059;-64
2023/09/19 05:48:39;;;;;;;8.15;1.52;;;;;;;;;;5088637;28;20054;-61
2023/09/19 05:51:06;;;;;;;7.85;1.23;;;;;;;;;;5069029;28;20043;-66
2023/09/19 05:53:34;;;;;;;6.72;1.40;;;;;;;;;;5081708;28;20036;-62
2023/09/19 05:56:01;;;;;;;7.60;1.13;;;;;;;;;;5086390;28;20063;-62
2023/09/19 05:58:28;;;;;;;7.80;1.10;;;;;;;;;;5088694;28;20510;-62
2023/09/19 06:00:55;;;;;;;11.13;1.30;;;;;;;;;;5087584;28;20537;-63
2023/09/19 06:03:23;;;;;;;10.40;1.52;;;;;;;;;;5086500;28;20037;-62
2023/09/19 06:05:52;;;;;;;10.88;1.23;;;;;;;;;;5090557;28;20097;-63
2023/09/19 06:08:20;;;;;;;2.58;0.80;;;;;;;;;;5066728;28;20052;-61
2023/09/19 06:10:48;;;;;;;8.57;1.48;;;;;;;;;;5087501;28;20057;-62
2023/09/19 06:13:16;;;;;;;6.93;1.17;;;;;;;;;;5089249;28;20089;-62
2023/09/19 06:15:43;;;;;;;6.55;1.15;;;;;;;;;;5066375;28;20411;-62
2023/09/19 06:18:15;;;;;;;6.88;1.23;;;;;;;;;;5086657;28;20484;-62
2023/09/19 06:20:44;;;;;;;4.40;1.00;;;;;;;;;;5088668;28;20117;-63
2023/09/19 06:23:12;;;;;;;7.78;1.10;;;;;;;;;;5084379;28;20174;-62
2023/09/19 06:25:40;;;;;;;4.15;0.88;;;;;;;;;;5088424;28;20118;-63
2023/09/19 06:28:11;;;;;;;10.40;1.30;;;;;;;;;;5073039;28;20099;-62
2023/09/19 06:30:40;;;;;;;4.65;0.90;;;;;;;;;;5088021;28;20483;-62
2023/09/19 06:33:08;;;;;;;12.15;0.85;;;;;;;;;;5088213;28;20137;-62
2023/09/19 06:35:36;;;;;;;4.65;1.38;;;;;;;;;;5086057;28;20130;-61
2023/09/19 06:38:05;;;;;;;8.02;1.45;;;;;;;;;;5084485;28;20404;-62
2023/09/19 06:40:35;;;;;;;9.20;1.15;;;;;;;;;;5081764;28;20062;-62
2023/09/19 06:43:03;;;;;;;6.93;1.27;;;;;;;;;;5084339;28;20041;-63
2023/09/19 06:45:31;;;;;;;7.15;1.30;;;;;;;;;;5082892;28;20426;-62
2023/09/19 06:48:00;;;;;;;4.88;0.85;;;;;;;;;;5065073;28;20090;-64
2023/09/19 06:50:30;;;;;;;6.65;1.02;;;;;;;;;;5086889;28;20049;-63
2023/09/19 06:53:00;;;;;;;5.85;1.05;;;;;;;;;;5087155;28;20050;-63
2023/09/19 06:55:31;;;;;;;8.32;1.20;;;;;;;;;;5083507;28;20056;-62
2023/09/19 06:58:00;;;;;;;7.03;0.95;;;;;;;;;;5083996;28;20136;-62
2023/09/19 07:00:28;;;;;;;10.75;1.80;;;;;;;;;;5069956;28;20055;-64
2023/09/19 07:03:00;;;;;;;7.22;1.17;;;;;;;;;;5083885;28;20040;-62
2023/09/19 07:05:28;;;;;;;10.57;1.30;;;;;;;;;;5068273;28;20058;-64
2023/09/19 07:07:56;;;;;;;6.75;1.08;;;;;;;;;;5066838;28;20321;-63
2023/09/19 07:10:25;;;;;;;8.77;1.20;;;;;;;;;;5086255;28;20491;-65
2023/09/19 07:12:57;;;;;;;9.23;1.30;;;;;;;;;;5088341;28;20094;-62
2023/09/19 07:15:26;;;;;;;11.38;1.35;;;;;;;;;;5088146;28;20057;-62
2023/09/19 07:17:54;;;;;;;4.35;0.93;;;;;;;;;;5076218;28;20091;-62
2023/09/19 07:20:21;;;;;;;9.05;1.35;;;;;;;;;;5085989;28;20066;-62
2023/09/19 07:22:50;;;;;;;5.00;1.05;;;;;;;;;;5072949;28;20067;-62
2023/09/19 07:25:17;;;;;;;8.30;1.13;;;;;;;;;;5083973;28;20098;-61
2023/09/19 07:27:45;;;;;;;9.93;1.48;;;;;;;;;;5089863;28;20044;-61
2023/09/19 07:30:12;;;;;;;9.23;1.17;;;;;;;;;;5082230;28;20044;-61
2023/09/19 07:32:41;;;;;;;4.63;1.10;;;;;;;;;;5084940;28;20131;-61
2023/09/19 07:35:09;;;;;;;8.52;1.33;;;;;;;;;;5082110;28;20040;-63
2023/09/19 07:37:36;;;;;;;7.75;1.27;;;;;;;;;;5087984;28;20075;-62
2023/09/19 07:40:06;;;;;;;9.45;1.52;;;;;;;;;;5079903;28;20057;-62
2023/09/19 07:42:35;;;;;;;10.00;1.52;;;;;;;;;;5086736;28;20630;-62
2023/09/19 07:45:02;;;;;;;7.53;1.17;;;;;;;;;;5088684;28;20127;-61
2023/09/19 07:47:30;;;;;;;11.35;1.27;;;;;;;;;;5078378;28;20485;-62
2023/09/19 07:49:58;;;;;;;7.07;1.30;;;;;;;;;;5081734;28;20047;-61
2023/09/19 07:52:27;;;;;;;7.47;1.10;;;;;;;;;;5084283;28;20044;-61
2023/09/19 07:54:54;;;;;;;5.78;1.20;;;;;;;;;;5080625;28;20083;-62
2023/09/19 07:57:22;;;;;;;8.45;1.27;;;;;;;;;;5088889;28;20054;-63
2023/09/19 07:59:49;;;;;;;12.85;1.48;;;;;;;;;;5087405;28;20059;-62
2023/09/19 08:02:18;;;;;;;9.07;1.10;;;;;;;;;;5087424;28;20047;-61
2023/09/19 08:04:45;;;;;;;6.63;1.23;;;;;;;;;;5086351;28;20051;-62
2023/09/19 08:07:14;;;;;;;7.10;1.40;;;;;;;;;;5085037;28;20120;-61
2023/09/19 08:09:48;;;;;;;8.13;1.45;;;;;;;;;;5082199;28;20052;-62
2023/09/19 08:12:16;;;;;;;6.07;1.02;;;;;;;;;;5082076;28;20055;-62
2023/09/19 08:14:44;;;;;;;5.45;1.13;;;;;;;;;;5081064;28;20147;-62
2023/09/19 08:17:11;;;;;;;5.53;1.70;;;;;;;;;;5079188;28;20059;-64
2023/09/19 08:19:41;;;;;;;10.90;2.03;;;;;;;;;;5077582;28;20052;-62
2023/09/19 08:22:10;;;;;;;10.77;1.83;;;;;;;;;;5083824;28;20054;-65
2023/09/19 08:24:38;;;;;;;8.77;1.52;;;;;;;;;;5087005;28;20468;-62
2023/09/19 08:27:09;;;;;;;6.53;1.25;;;;;;;;;;5087789;28;20048;-62
2023/09/19 08:29:36;;;;;;;5.18;1.90;;;;;;;;;;5088015;28;20059;-61
2023/09/19 08:32:04;;;;;;;7.38;1.40;;;;;;;;;;5088887;28;20056;-62
2023/09/19 08:34:33;;;;;;;9.57;1.67;;;;;;;;;;5089402;28;20122;-62
2023/09/19 08:37:01;;;;;;;5.38;1.20;;;;;;;;;;5087208;28;20045;-62
2023/09/19 08:39:30;;;;;;;7.55;1.30;;;;;;;;;;5088062;28;20043;-62
2023/09/19 08:42:03;;;;;;;10.93;1.63;;;;;;;;;;5088309;28;20044;-61
2023/09/19 08:44:31;;;;;;;6.60;1.48;;;;;;;;;;5087970;28;20070;-61
2023/09/19 08:47:09;;;;;;;9.60;1.45;;;;;;;;;;5085062;28;20043;-62
2023/09/19 08:49:40;;;;;;;10.10;2.10;;;;;;;;;;5086556;28;20051;-62
2023/09/19 08:52:12;;;;;;;8.20;1.50;;;;;;;;;;5089669;28;20059;-62
2023/09/19 08:54:40;;;;;;;6.97;1.25;;;;;;;;;;5088630;28;20052;-63
2023/09/19 08:57:10;;;;;;;9.73;1.25;;;;;;;;;;5085597;28;20044;-62
2023/09/19 08:59:39;;;;;;;8.73;1.60;;;;;;;;;;5086660;28;20051;-62
2023/09/19 09:02:11;;;;;;;8.73;1.40;;;;;;;;;;5088533;28;20048;-62
2023/09/19 09:04:40;;;;;;;8.73;1.33;;;;;;;;;;5091570;28;20047;-62
2023/09/19 09:07:08;;;;;;;8.48;1.70;;;;;;;;;;5089464;28;20123;-65
2023/09/19 09:09:35;;;;;;;7.68;1.70;;;;;;;;;;5081836;28;20043;-62
2023/09/19 09:12:04;;;;;;;6.93;1.60;;;;;;;;;;5088664;28;20126;-64
2023/09/19 09:14:34;;;;;;;11.07;1.70;;;;;;;;;;5085400;28;20045;-64
2023/09/19 09:17:02;;;;;;;9.13;1.50;;;;;;;;;;5088609;28;20057;-64
2023/09/19 09:19:30;;;;;;;7.53;1.48;;;;;;;;;;5090521;28;20044;-62
2023/09/19 09:22:07;;;;;;;5.50;1.42;;;;;;;;;;5097716;28;20128;-61
2023/09/19 09:24:36;;;;;;;8.00;1.27;;;;;;;;;;5083325;28;20047;-62
2023/09/19 09:27:07;;;;;;;13.70;1.40;;;;;;;;;;5090140;28;20048;-62
2023/09/19 09:29:43;;;;;;;14.15;1.70;;;;;;;;;;5092287;28;20047;-62
2023/09/19 09:32:21;;;;;;;8.95;1.50;;;;;;;;;;5080512;28;20056;-63
2023/09/19 09:34:50;;;;;;;14.05;1.70;;;;;;;;;;5092291;28;20486;-62
2023/09/19 09:37:19;;;;;;;7.50;1.65;;;;;;;;;;5089882;28;20044;-62
2023/09/19 09:39:56;;;;;;;8.57;1.55;;;;;;;;;;5090097;28;20495;-63
2023/09/19 09:42:35;;;;;;;9.55;1.70;;;;;;;;;;5085831;28;20526;-62
2023/09/19 09:45:17;;;;;;;8.10;1.48;;;;;;;;;;5084506;28;20093;-62
2023/09/19 09:47:54;;;;;;;5.68;1.35;;;;;;;;;;5083881;28;20055;-64
2023/09/19 09:50:29;;;;;;;9.27;1.55;;;;;;;;;;5086460;28;20051;-62
2023/09/19 09:53:06;;;;;;;13.32;1.50;;;;;;;;;;5081761;28;20044;-63
2023/09/19 09:55:55;;;;;;;8.98;2.03;;;;;;;;;;5079482;28;20067;-62
2023/09/19 09:58:25;;;;;;;10.55;1.92;;;;;;;;;;5090419;28;20059;-62
2023/09/19 10:00:58;;;;;;;6.95;1.45;;;;;;;;;;5090601;28;20060;-63
2023/09/19 10:03:33;;;;;;;10.50;1.92;;;;;;;;;;5083234;28;20045;-62
2023/09/19 10:06:02;;;;;;;7.65;1.70;;;;;;;;;;5084887;28;20040;-63
2023/09/19 10:08:31;;;;;;;6.20;1.60;;;;;;;;;;5090604;28;20566;-62
2023/09/19 10:11:05;;;;;;;10.30;1.80;;;;;;;;;;5088082;28;20123;-63
2023/09/19 10:13:33;;;;;;;9.80;1.50;;;;;;;;;;5090194;28;20147;-62
2023/09/19 10:16:10;;;;;;;10.02;1.45;;;;;;;;;;5089360;28;20050;-63
2023/09/19 10:18:38;;;;;;;6.13;1.70;;;;;;;;;;5088528;28;20055;-62
2023/09/19 10:21:08;;;;;;;6.63;1.60;;;;;;;;;;5087261;28;20044;-64
2023/09/19 10:23:37;;;;;;;10.80;2.00;;;;;;;;;;5085879;28;20056;-62
2023/09/19 10:26:05;;;;;;;12.77;1.60;;;;;;;;;;5089142;28;20155;-62
2023/09/19 10:28:34;;;;;;;9.43;1.52;;;;;;;;;;5083495;28;20056;-64
2023/09/19 10:31:03;;;;;;;11.00;1.50;;;;;;;;;;5085817;28;20049;-62
2023/09/19 10:33:37;;;;;;;10.00;1.63;;;;;;;;;;5088523;28;20090;-65
2023/09/19 10:36:08;;;;;;;7.20;1.58;;;;;;;;;;5080952;28;20036;-62
2023/09/19 10:38:36;;;;;;;10.05;1.38;;;;;;;;;;5083255;28;20048;-63
2023/09/19 10:41:05;;;;;;;7.47;1.90;;;;;;;;;;5090218;28;20052;-62
2023/09/19 10:43:32;;;;;;;10.27;1.40;;;;;;;;;;5088016;28;20059;-62
2023/09/19 10:46:06;;;;;;;7.90;1.85;;;;;;;;;;5091447;28;20133;-63
2023/09/19 10:48:33;;;;;;;10.38;1.35;;;;;;;;;;5080774;28;20048;-62
2023/09/19 10:51:09;;;;;;;14.18;1.67;;;;;;;;;;5089155;28;20052;-64
2023/09/19 10:53:43;;;;;;;10.50;2.08;;;;;;;;;;5082873;28;20052;-63
2023/09/19 10:56:17;;;;;;;8.25;1.77;;;;;;;;;;5082479;28;20059;-64
2023/09/19 10:58:45;;;;;;;9.82;1.80;;;;;;;;;;5089877;28;20052;-63
2023/09/19 11:01:15;;;;;;;7.93;1.80;;;;;;;;;;5092347;28;20063;-64
2023/09/19 11:03:44;;;;;;;7.50;1.45;;;;;;;;;;5076430;28;20067;-63
2023/09/19 11:06:13;;;;;;;8.40;1.60;;;;;;;;;;5086291;28;20044;-63
2023/09/19 11:09:21;;;;;;;9.30;1.55;;;;;;;;;;5072322;28;20523;-64
2023/09/19 11:11:53;;;;;;;10.68;1.88;;;;;;;;;;5063852;28;20051;-63
2023/09/19 11:14:40;;;;;;;10.35;1.80;;;;;;;;;;5087164;28;20356;-62
2023/09/19 11:17:26;;;;;;;9.32;1.70;;;;;;;;;;5093345;28;20066;-63
2023/09/19 11:20:24;;;;;;;8.52;1.73;;;;;;;;;;5088675;28;20040;-62
2023/09/19 11:23:09;;;;;;;11.55;1.80;;;;;;;;;;5093197;28;20051;-63
2023/09/19 11:25:47;;;;;;;9.60;2.38;;;;;;;;;;5091613;28;20101;-63
2023/09/19 11:28:31;;;;;;;13.07;1.80;;;;;;;;;;5086374;28;20145;-63
2023/09/19 11:30:58;;;;;;;12.55;2.38;;;;;;;;;;5089322;28;20064;-63
2023/09/19 11:33:31;;;;;;;8.23;1.60;;;;;;;;;;5090115;28;20127;-63
2023/09/19 11:36:02;;;;;;;7.77;2.17;;;;;;;;;;5077044;28;20048;-63
2023/09/19 11:38:49;;;;;;;10.05;1.88;;;;;;;;;;5096770;28;20131;-63
2023/09/19 11:41:49;;;;;;;7.30;1.50;;;;;;;;;;5079230;28;20094;-63
2023/09/19 11:44:38;;;;;;;9.90;2.10;;;;;;;;;;5008467;28;20143;-63
2023/09/19 11:47:07;;;;;;;13.40;1.90;;;;;;;;;;5079012;28;20146;-63
2023/09/19 11:49:36;;;;;;;9.57;2.00;;;;;;;;;;5074616;28;20052;-63
2023/09/19 11:52:08;;;;;;;8.93;1.88;;;;;;;;;;5090730;28;20055;-61
2023/09/19 11:54:39;;;;;;;9.52;1.98;;;;;;;;;;5092398;28;20054;-62
2023/09/19 11:57:07;;;;;;;8.82;1.88;;;;;;;;;;5082270;28;20052;-62
2023/09/19 11:59:40;;;;;;;12.35;2.72;;;;;;;;;;5076110;28;20132;-62
2023/09/19 12:02:08;;;;;;;10.15;1.55;;;;;;;;;;5077321;28;20048;-62
2023/09/19 12:04:37;;;;;;;14.40;2.53;;;;;;;;;;5060326;28;20051;-62
2023/09/19 12:07:05;;;;;;;9.32;1.92;;;;;;;;;;5084160;28;20052;-62
2023/09/19 12:09:33;;;;;;;9.65;1.88;;;;;;;;;;5052980;28;20480;-62
2023/09/19 12:12:00;;;;;;;9.48;1.70;;;;;;;;;;5081929;28;20080;-64
2023/09/19 12:14:27;;;;;;;9.20;1.20;;;;;;;;;;5076573;28;20392;-63
2023/09/19 12:16:57;;;;;;;9.15;1.85;;;;;;;;;;5091868;28;20044;-62
2023/09/19 12:19:24;;;;;;;7.32;1.25;;;;;;;;;;5093791;28;20058;-64
2023/09/19 12:22:04;;;;;;;11.35;1.30;;;;;;;;;;5089799;28;20514;-64
2023/09/19 12:24:31;;;;;;;10.15;1.35;;;;;;;;;;5082688;28;20053;-63
2023/09/19 12:27:04;;;;;;;4.50;1.10;;;;;;;;;;5083920;28;20040;-63
2023/09/19 12:29:32;;;;;;;10.77;1.40;;;;;;;;;;5077103;28;20114;-62
2023/09/19 12:32:03;;;;;;;10.38;1.52;;;;;;;;;;5082975;28;20036;-65
2023/09/19 12:34:34;;;;;;;7.10;1.17;;;;;;;;;;5086762;28;20101;-63
2023/09/19 12:37:10;;;;;;;8.77;1.65;;;;;;;;;;5085271;28;20051;-63
2023/09/19 12:39:38;;;;;;;9.75;1.27;;;;;;;;;;5088354;28;20491;-62
2023/09/19 12:42:08;;;;;;;5.65;1.30;;;;;;;;;;5082306;28;20063;-61
2023/09/19 12:44:36;;;;;;;6.07;1.45;;;;;;;;;;5087086;28;20043;-61
2023/09/19 12:47:11;;;;;;;10.20;1.70;;;;;;;;;;5089145;28;20526;-63
2023/09/19 12:49:54;;;;;;;13.00;1.50;;;;;;;;;;5083643;28;20058;-62
2023/09/19 12:52:24;;;;;;;14.50;1.65;;;;;;;;;;5087065;28;20044;-64
2023/09/19 12:54:52;;;;;;;9.93;1.85;;;;;;;;;;5094929;28;20067;-62
2023/09/19 12:57:25;;;;;;;6.82;1.80;;;;;;;;;;5087998;28;20055;-63
2023/09/19 12:59:53;;;;;;;11.65;2.47;;;;;;;;;;5091573;28;20074;-62
2023/09/19 13:02:24;;;;;;;6.80;1.83;;;;;;;;;;5085331;28;20132;-61
2023/09/19 13:04:54;;;;;;;8.02;1.60;;;;;;;;;;5082319;28;20127;-61
2023/09/19 13:07:36;;;;;;;6.88;1.70;;;;;;;;;;5079760;28;20117;-64
2023/09/19 13:10:07;;;;;;;10.45;2.05;;;;;;;;;;5071942;28;20077;-62
2023/09/19 13:12:38;;;;;;;6.38;1.40;;;;;;;;;;5090944;28;20448;-62
2023/09/19 13:15:13;;;;;;;7.57;1.98;;;;;;;;;;5091356;28;20097;-62
2023/09/19 13:17:49;;;;;;;5.68;1.40;;;;;;;;;;5089914;28;20080;-62
2023/09/19 13:20:27;;;;;;;7.88;1.45;;;;;;;;;;5085059;28;20071;-63
2023/09/19 13:22:58;;;;;;;9.82;1.88;;;;;;;;;;5079635;28;20467;-65
2023/09/19 13:25:27;;;;;;;7.10;1.45;;;;;;;;;;5086066;28;20441;-62
2023/09/19 13:27:56;;;;;;;6.25;1.63;;;;;;;;;;5085698;28;20057;-63
2023/09/19 13:30:24;;;;;;;7.18;1.38;;;;;;;;;;5091002;28;20052;-63
2023/09/19 13:32:53;;;;;;;10.80;1.63;;;;;;;;;;5095047;28;20059;-63
2023/09/19 13:35:21;;;;;;;9.60;1.52;;;;;;;;;;5083101;28;20127;-66
2023/09/19 13:37:51;;;;;;;7.82;1.88;;;;;;;;;;5086183;28;20048;-65
2023/09/19 13:40:18;;;;;;;9.82;1.77;;;;;;;;;;5082461;28;20069;-66
2023/09/19 13:42:46;;;;;;;7.97;1.50;;;;;;;;;;5091455;28;20044;-65
2023/09/19 13:45:15;;;;;;;6.80;1.80;;;;;;;;;;5090197;28;20495;-65
2023/09/19 13:47:43;;;;;;;8.25;2.05;;;;;;;;;;5089576;28;20052;-66
2023/09/19 13:50:11;;;;;;;13.70;2.17;;;;;;;;;;5089025;28;20044;-65
2023/09/19 13:52:39;;;;;;;6.43;1.55;;;;;;;;;;5078952;28;20052;-66
2023/09/19 13:55:07;;;;;;;6.38;1.73;;;;;;;;;;5086700;28;20090;-63
2023/09/19 13:57:34;;;;;;;10.25;1.95;;;;;;;;;;5080331;28;20070;-63
2023/09/19 14:00:02;;;;;;;7.10;1.80;;;;;;;;;;5078994;28;20036;-63
2023/09/19 14:02:29;;;;;;;8.93;2.38;;;;;;;;;;5082291;28;20046;-63
2023/09/19 14:04:57;;;;;;;13.30;1.90;;;;;;;;;;5078286;28;20070;-63
2023/09/19 14:07:26;;;;;;;9.73;2.08;;;;;;;;;;5081282;28;20048;-63
2023/09/19 14:09:53;;;;;;;8.40;1.52;;;;;;;;;;5073506;28;20066;-62
2023/09/19 14:12:21;;;;;;;10.38;1.77;;;;;;;;;;5086861;28;20044;-64
2023/09/19 14:14:49;;;;;;;4.72;1.50;;;;;;;;;;5082956;28;20423;-64
2023/09/19 14:17:18;;;;;;;5.25;1.73;;;;;;;;;;5094170;28;20092;-64
2023/09/19 14:19:45;;;;;;;10.15;2.42;;;;;;;;;;5089516;28;20076;-62
2023/09/19 14:22:14;;;;;;;7.75;1.70;;;;;;;;;;5098183;28;20623;-63
2023/09/19 14:24:42;;;;;;;7.78;1.90;;;;;;;;;;5085760;28;20091;-63
2023/09/19 14:27:10;;;;;;;10.82;2.22;;;;;;;;;;5090626;28;20043;-63
2023/09/19 14:29:37;;;;;;;13.85;2.47;;;;;;;;;;5091415;28;20500;-64
2023/09/19 14:32:05;;;;;;;10.75;2.05;;;;;;;;;;5088740;28;20048;-64
2023/09/19 14:34:32;;;;;;;10.40;2.15;;;;;;;;;;5083875;28;20479;-64
2023/09/19 14:37:00;;;;;;;10.57;2.10;;;;;;;;;;5092882;28;20527;-64
2023/09/19 14:39:28;;;;;;;11.10;1.98;;;;;;;;;;5091145;28;20044;-63
2023/09/19 14:41:56;;;;;;;13.30;2.22;;;;;;;;;;5076111;28;20454;-64
2023/09/19 14:44:24;;;;;;;13.48;1.98;;;;;;;;;;5093185;28;20495;-64
2023/09/19 14:46:52;;;;;;;11.05;1.98;;;;;;;;;;5088107;28;20539;-63
2023/09/19 14:49:19;;;;;;;10.65;1.80;;;;;;;;;;5085481;28;20163;-64
2023/09/19 14:51:47;;;;;;;14.70;1.88;;;;;;;;;;5090209;28;20051;-64
2023/09/19 14:54:16;;;;;;;13.20;2.17;;;;;;;;;;5079652;28;20048;-63
2023/09/19 14:56:44;;;;;;;9.30;2.00;;;;;;;;;;5086173;28;20101;-64